Illesheim Air Base ETIK

Flugplatz Daten

Name: Illesheim Air Base

Ident: ETIK

Lat: 49,47389984

Long: 10,38809967

Platzhöhe: 1079 ft

IataCode:

City:

Metar

2021/10/16 16:56
ETIK 161656Z AUTO 00000KT 9999 CLR 09/05 A3017 RMK AO2 SLP226 T00870053

Taf

2021/10/15 14:08
TAF ETIK 151400Z 1514/1620 25009KT 9999 FEW020 SCT060 QNH3004INS
BECMG 1518/1519 VRB06KT 9999 SCT030 BKN060 QNH3007INS
BECMG 1601/1602 VRB06KT 8000 BR BKN030 QNH3010INS
TEMPO 1602/1606 5000 BR BKN015
BECMG 1609/1610 VRB06KT 9999 SCT040 QNH3013INS TX14/1612Z TN02/1602Z LAST NO
AMDS AFT 1514 NEXT 1806
Gewünschte Webcam nicht vorhanden? Dann fügen Sie eine hinzu. Sie wird dann so schnell wie möglich freigeschaltet
Url: Title: